createdAt,value
2018-06-16T00:01:29.587Z,99299.29
2018-06-16T00:03:58.560Z,99299.45
2018-06-16T00:06:27.620Z,99304.40
2018-06-16T00:08:56.612Z,99298.97
2018-06-16T00:11:25.618Z,99297.09
2018-06-16T00:13:54.705Z,99291.88
2018-06-16T00:16:23.668Z,99298.22
2018-06-16T00:18:52.651Z,99298.09
2018-06-16T00:21:21.717Z,99297.18
2018-06-16T00:23:50.663Z,99297.93
2018-06-16T00:26:19.609Z,99294.61
2018-06-16T00:28:48.642Z,99286.47
2018-06-16T00:31:17.593Z,99282.28
2018-06-16T00:33:46.552Z,99282.72
2018-06-16T00:36:15.501Z,99278.08
2018-06-16T00:38:44.497Z,99288.93
2018-06-16T00:41:13.448Z,99285.08
2018-06-16T00:43:42.469Z,99288.02
2018-06-16T00:46:11.522Z,99285.52
2018-06-16T00:48:40.523Z,99281.98
2018-06-16T00:51:09.504Z,99288.46
2018-06-16T00:53:38.509Z,99284.56
2018-06-16T00:56:07.553Z,99280.77
2018-06-16T00:58:36.514Z,99284.84
2018-06-16T01:01:05.513Z,99284.31
2018-06-16T01:03:34.475Z,99286.36
2018-06-16T01:06:03.421Z,99285.75
2018-06-16T01:08:32.364Z,99292.75
2018-06-16T01:11:01.369Z,99293.59
2018-06-16T01:13:30.392Z,99282.13
2018-06-16T01:15:59.358Z,99277.48
2018-06-16T01:18:28.507Z,99288.33
2018-06-16T01:20:58.356Z,99289.38
2018-06-16T01:23:27.316Z,99281.25
2018-06-16T01:25:56.380Z,99288.77
2018-06-16T01:28:25.453Z,99287.34
2018-06-16T01:30:54.460Z,99277.02
2018-06-16T01:33:23.556Z,99272.90
2018-06-16T01:35:52.561Z,99275.66
2018-06-16T01:38:22.044Z,99270.10
2018-06-16T01:40:50.984Z,99266.70
2018-06-16T01:43:19.940Z,99267.53
2018-06-16T01:45:48.876Z,99278.06
2018-06-16T01:48:17.827Z,99276.44
2018-06-16T01:50:46.824Z,99271.29
2018-06-16T01:53:15.770Z,99267.39
2018-06-16T01:55:44.704Z,99270.45
2018-06-16T01:58:13.731Z,99266.95
2018-06-16T02:00:42.736Z,99268.30
2018-06-16T02:03:11.822Z,99269.39
2018-06-16T02:05:40.905Z,99260.29
2018-06-16T02:08:09.924Z,99261.50
2018-06-16T02:10:38.981Z,99262.08
2018-06-16T02:13:07.937Z,99263.30
2018-06-16T02:15:36.940Z,99257.99
2018-06-16T02:18:05.943Z,99265.08
2018-06-16T02:20:35.009Z,99265.08
2018-06-16T02:23:04.026Z,99264.48
2018-06-16T02:25:33.101Z,99267.02
2018-06-16T02:28:02.064Z,99278.91
2018-06-16T02:30:31.004Z,99267.00
2018-06-16T02:32:59.969Z,99265.64
2018-06-16T02:35:29.049Z,99264.73
2018-06-16T02:37:58.138Z,99264.56
2018-06-16T02:40:27.101Z,99262.75
2018-06-16T02:42:56.297Z,99266.06
2018-06-16T02:45:25.253Z,99262.56
2018-06-16T02:47:54.200Z,99265.58
2018-06-16T02:50:23.347Z,99264.53
2018-06-16T02:52:52.296Z,99261.81
2018-06-16T02:55:21.297Z,99269.42
2018-06-16T02:57:50.292Z,99272.30
2018-06-16T03:00:19.311Z,99269.20
2018-06-16T03:02:48.239Z,99273.39
2018-06-16T03:05:17.381Z,99278.21
2018-06-16T03:07:46.332Z,99277.72
2018-06-16T03:10:15.284Z,99280.28
2018-06-16T03:12:44.363Z,99286.43
2018-06-16T03:15:13.505Z,99290.69
2018-06-16T03:17:42.492Z,99284.11
2018-06-16T03:20:11.516Z,99288.00
2018-06-16T03:22:40.537Z,99279.98
2018-06-16T03:25:09.496Z,99280.52
2018-06-16T03:27:38.557Z,99278.36
2018-06-16T03:30:07.603Z,99284.89
2018-06-16T03:32:36.597Z,99286.78
2018-06-16T03:35:05.560Z,99288.54
2018-06-16T03:37:34.515Z,99288.08
2018-06-16T03:40:03.568Z,99292.10
2018-06-16T03:42:32.504Z,99282.69
2018-06-16T03:45:01.593Z,99276.36
2018-06-16T03:47:30.684Z,99280.94
2018-06-16T03:49:59.704Z,99286.31
2018-06-16T03:52:28.783Z,99285.55
2018-06-16T03:54:58.005Z,99290.02
2018-06-16T03:57:27.039Z,99289.25
2018-06-16T03:59:56.093Z,99290.91
2018-06-16T04:02:25.100Z,99284.66
2018-06-16T04:04:54.113Z,99278.67
2018-06-16T04:07:23.062Z,99282.83
2018-06-16T04:09:52.082Z,99286.80
2018-06-16T04:12:21.404Z,99284.97
2018-06-16T04:14:50.464Z,99290.32
2018-06-16T04:17:20.493Z,99294.58
2018-06-16T04:19:51.780Z,99294.30
2018-06-16T04:22:21.212Z,99297.07
2018-06-16T04:24:50.232Z,99297.42
2018-06-16T04:27:19.216Z,99303.22
2018-06-16T04:29:48.237Z,99304.28
2018-06-16T04:32:17.179Z,99308.89
2018-06-16T04:34:46.302Z,99307.37
2018-06-16T04:37:15.424Z,99309.00
2018-06-16T04:39:44.412Z,99311.27
2018-06-16T04:42:13.400Z,99304.77
2018-06-16T04:44:42.426Z,99309.73
2018-06-16T04:47:11.380Z,99310.86
2018-06-16T04:49:40.383Z,99311.18
2018-06-16T04:52:09.402Z,99313.48
2018-06-16T04:54:38.449Z,99309.80
2018-06-16T04:57:07.496Z,99311.25
2018-06-16T04:59:36.496Z,99322.79
2018-06-16T05:02:05.585Z,99321.83
2018-06-16T05:04:34.560Z,99319.89
2018-06-16T05:07:03.515Z,99319.17
2018-06-16T05:09:32.551Z,99311.89
2018-06-16T05:12:01.619Z,99318.88
2018-06-16T05:14:30.597Z,99319.05
2018-06-16T05:16:59.620Z,99318.46
2018-06-16T05:19:28.696Z,99316.32
2018-06-16T05:21:57.800Z,99306.52
2018-06-16T05:24:26.812Z,99306.05
2018-06-16T05:26:55.844Z,99305.50
2018-06-16T05:29:24.808Z,99309.39
2018-06-16T05:31:53.756Z,99303.31
2018-06-16T05:34:22.753Z,99302.43
2018-06-16T05:36:51.926Z,99266.72
2018-06-16T05:39:21.011Z,99309.53
2018-06-16T05:41:50.090Z,99312.03
2018-06-16T05:44:19.124Z,99321.36
2018-06-16T05:46:48.217Z,99319.29
2018-06-16T05:49:17.238Z,99318.69
2018-06-16T05:51:46.193Z,99323.89
2018-06-16T05:54:15.269Z,99309.42
2018-06-16T05:56:44.239Z,99310.47
2018-06-16T05:59:13.244Z,99308.81
2018-06-16T06:01:42.272Z,99307.72
2018-06-16T06:04:11.263Z,99305.67
2018-06-16T06:06:40.305Z,99304.41
2018-06-16T06:09:10.435Z,99303.05
2018-06-16T06:11:39.671Z,99323.36
2018-06-16T06:14:09.596Z,99317.25
2018-06-16T06:16:39.229Z,99313.15
2018-06-16T06:19:08.209Z,99315.13
2018-06-16T06:21:37.214Z,99316.78
2018-06-16T06:24:06.241Z,99310.18
2018-06-16T06:26:35.377Z,99304.72
2018-06-16T06:29:04.405Z,99316.75
2018-06-16T06:31:33.363Z,99308.54
2018-06-16T06:34:02.384Z,99308.83
2018-06-16T06:36:31.404Z,99299.48
2018-06-16T06:39:00.413Z,99304.15
2018-06-16T06:41:29.394Z,99309.55
2018-06-16T06:43:58.364Z,99309.76
2018-06-16T06:46:27.473Z,99308.58
2018-06-16T06:48:56.441Z,99306.86
2018-06-16T06:51:25.444Z,99314.37
2018-06-16T06:53:54.534Z,99308.09
2018-06-16T06:56:23.557Z,99314.33
2018-06-16T06:58:52.597Z,99316.38
2018-06-16T07:01:21.556Z,99329.31
2018-06-16T07:03:50.639Z,99330.16
2018-06-16T07:06:19.690Z,99319.44
2018-06-16T07:08:48.701Z,99329.67
2018-06-16T07:11:17.787Z,99330.86
2018-06-16T07:13:46.865Z,99331.08
2018-06-16T07:16:15.832Z,99340.20
2018-06-16T07:18:44.888Z,99332.11
2018-06-16T07:21:13.908Z,99332.43
2018-06-16T07:23:42.917Z,99324.50
2018-06-16T07:26:11.920Z,99329.90
2018-06-16T07:28:40.890Z,99331.40
2018-06-16T07:31:09.836Z,99336.66
2018-06-16T07:33:38.920Z,99327.52
2018-06-16T07:36:07.909Z,99328.98
2018-06-16T07:38:36.905Z,99331.00
2018-06-16T07:41:05.857Z,99333.27
2018-06-16T07:43:34.932Z,99330.88
2018-06-16T07:46:03.894Z,99321.94
2018-06-16T07:48:32.951Z,99333.72
2018-06-16T07:51:01.953Z,99341.31
2018-06-16T07:53:30.990Z,99338.34
2018-06-16T07:55:59.980Z,99340.52
2018-06-16T07:58:29.061Z,99340.32
2018-06-16T08:00:58.045Z,99343.34
2018-06-16T08:03:27.000Z,99344.69
2018-06-16T08:05:55.982Z,99344.64
2018-06-16T08:08:25.040Z,99343.55
2018-06-16T08:10:54.017Z,99340.44
2018-06-16T08:13:23.078Z,99340.09
2018-06-16T08:15:52.110Z,99337.98
2018-06-16T08:18:21.149Z,99334.05
2018-06-16T08:20:50.202Z,99335.92
2018-06-16T08:23:19.204Z,99328.23
2018-06-16T08:25:48.236Z,99329.28
2018-06-16T08:28:17.255Z,99323.66
2018-06-16T08:30:46.235Z,99324.57
2018-06-16T08:33:15.165Z,99321.28
2018-06-16T08:35:44.220Z,99319.89
2018-06-16T08:38:13.313Z,99320.11
2018-06-16T08:40:42.275Z,99321.22
2018-06-16T08:43:11.233Z,99315.31
2018-06-16T08:45:40.304Z,99312.84
2018-06-16T08:48:09.297Z,99312.66
2018-06-16T08:50:38.322Z,99310.69
2018-06-16T08:53:07.421Z,99308.45
2018-06-16T08:55:36.480Z,99307.57
2018-06-16T08:58:05.433Z,99306.02
2018-06-16T09:00:34.384Z,99310.69
2018-06-16T09:03:03.340Z,99308.84
2018-06-16T09:05:32.337Z,99308.63
2018-06-16T09:08:01.352Z,99306.63
2018-06-16T09:10:30.529Z,99311.05
2018-06-16T09:12:59.497Z,99299.65
2018-06-16T09:15:28.577Z,99302.23
2018-06-16T09:17:57.687Z,99293.93
2018-06-16T09:20:26.660Z,99290.26
2018-06-16T09:22:55.841Z,99293.14
2018-06-16T09:25:24.845Z,99289.95
2018-06-16T09:27:53.938Z,99299.05
2018-06-16T09:30:22.884Z,99298.94
2018-06-16T09:32:51.919Z,99303.66
2018-06-16T09:35:20.920Z,99298.66
2018-06-16T09:37:49.949Z,99302.98
2018-06-16T09:40:18.888Z,99304.36
2018-06-16T09:42:47.912Z,99301.74
2018-06-16T09:45:16.856Z,99303.35
2018-06-16T09:47:45.973Z,99301.66
2018-06-16T09:50:14.925Z,99299.64
2018-06-16T09:52:43.965Z,99294.84
2018-06-16T09:55:12.924Z,99289.06
2018-06-16T09:57:41.860Z,99286.92
2018-06-16T10:00:14.883Z,99286.94
2018-06-16T10:02:43.833Z,99278.92
2018-06-16T10:05:12.861Z,99266.69
2018-06-16T10:07:41.831Z,99271.64
2018-06-16T10:10:10.862Z,99278.70
2018-06-16T10:12:39.936Z,99283.88
2018-06-16T10:15:08.976Z,99276.16
2018-06-16T10:17:37.931Z,99277.67
2018-06-16T10:20:06.880Z,99278.61
2018-06-16T10:22:35.864Z,99272.91
2018-06-16T10:25:04.857Z,99283.87
2018-06-16T10:27:33.920Z,99285.17
2018-06-16T10:30:02.932Z,99285.97
2018-06-16T10:32:32.003Z,99284.03
2018-06-16T10:35:00.973Z,99279.73
2018-06-16T10:37:29.956Z,99279.82
2018-06-16T10:39:58.940Z,99271.23
2018-06-16T10:42:27.916Z,99262.20
2018-06-16T10:44:57.020Z,99255.97
2018-06-16T10:47:26.040Z,99242.59
2018-06-16T10:49:55.045Z,99233.05
2018-06-16T10:52:24.092Z,99226.57
2018-06-16T10:54:53.181Z,99222.66
2018-06-16T10:57:22.229Z,99222.66
2018-06-16T10:59:51.177Z,99225.34
2018-06-16T11:02:20.145Z,99234.41
2018-06-16T11:04:49.263Z,99234.21
2018-06-16T11:07:18.307Z,99234.37
2018-06-16T11:09:47.349Z,99219.06
2018-06-16T11:12:16.432Z,99209.23
2018-06-16T11:14:45.379Z,99202.48
2018-06-16T11:17:14.515Z,99197.80
2018-06-16T11:19:43.527Z,99187.16
2018-06-16T11:22:12.463Z,99183.41
2018-06-16T11:24:41.476Z,99194.17
2018-06-16T11:27:10.411Z,99211.19
2018-06-16T11:29:39.376Z,99215.73
2018-06-16T11:32:08.335Z,99213.09
2018-06-16T11:34:37.368Z,99212.31
2018-06-16T11:37:06.333Z,99204.34
2018-06-16T11:39:35.355Z,99202.21
2018-06-16T11:42:04.427Z,99211.09
2018-06-16T11:44:33.430Z,99207.98
2018-06-16T11:47:02.392Z,99213.03
2018-06-16T11:49:31.321Z,99206.52
2018-06-16T11:52:00.337Z,99207.49
2018-06-16T11:54:29.385Z,99219.91
2018-06-16T11:56:58.455Z,99236.25
2018-06-16T11:59:27.456Z,99252.95
2018-06-16T12:01:56.488Z,99254.81
2018-06-16T12:04:25.557Z,99251.11
2018-06-16T12:06:54.507Z,99242.12
2018-06-16T12:09:23.513Z,99246.89
2018-06-16T12:11:52.448Z,99243.70
2018-06-16T12:14:21.407Z,99249.27
2018-06-16T12:16:50.368Z,99241.65
2018-06-16T12:19:19.448Z,99246.70
2018-06-16T12:21:48.451Z,99238.55
2018-06-16T12:24:17.451Z,99225.70
2018-06-16T12:26:46.431Z,99218.42
2018-06-16T12:29:15.437Z,99210.00
2018-06-16T12:31:44.404Z,99202.33
2018-06-16T12:34:13.342Z,99210.66
2018-06-16T12:36:42.336Z,99226.09
2018-06-16T12:39:12.030Z,99235.21
2018-06-16T12:41:41.195Z,99247.34
2018-06-16T12:44:10.223Z,99236.96
2018-06-16T12:46:39.151Z,99226.63
2018-06-16T12:49:08.132Z,99232.16
2018-06-16T12:51:37.186Z,99226.23
2018-06-16T12:54:06.286Z,99235.82
2018-06-16T12:56:35.296Z,99246.72
2018-06-16T12:59:04.263Z,99267.38
2018-06-16T13:01:33.225Z,99282.20
2018-06-16T13:04:02.297Z,99284.04
2018-06-16T13:06:31.396Z,99266.36
2018-06-16T13:09:00.413Z,99258.02
2018-06-16T13:11:29.477Z,99264.91
2018-06-16T13:13:58.495Z,99290.84
2018-06-16T13:16:27.489Z,99309.03
2018-06-16T13:18:56.929Z,99314.66
2018-06-16T13:21:26.312Z,99327.32
2018-06-16T13:23:55.269Z,99354.83
2018-06-16T13:26:24.293Z,99366.70
2018-06-16T13:28:53.338Z,99383.28
2018-06-16T13:31:22.381Z,99375.11
2018-06-16T13:33:51.426Z,99362.72
2018-06-16T13:36:20.517Z,99359.72
2018-06-16T13:38:49.563Z,99344.28
2018-06-16T13:41:18.603Z,99338.54
2018-06-16T13:43:47.556Z,99317.05
2018-06-16T13:46:16.530Z,99288.81
2018-06-16T13:48:45.548Z,99258.65
2018-06-16T13:51:14.581Z,99240.34
2018-06-16T13:53:43.596Z,99228.31
2018-06-16T13:56:13.317Z,99215.23
2018-06-16T13:58:42.407Z,99201.69
2018-06-16T14:01:11.557Z,99204.47
2018-06-16T14:03:40.612Z,99207.48
2018-06-16T14:06:09.618Z,99220.05
2018-06-16T14:08:38.739Z,99225.01
2018-06-16T14:11:07.735Z,99219.76
2018-06-16T14:13:36.762Z,99221.36
2018-06-16T14:16:05.808Z,99222.77
2018-06-16T14:18:34.835Z,99244.88
2018-06-16T14:21:03.813Z,99254.11
2018-06-16T14:23:32.792Z,99271.31
2018-06-16T14:26:01.786Z,99285.73
2018-06-16T14:28:30.817Z,99282.70
2018-06-16T14:31:00.004Z,99273.11
2018-06-16T14:33:29.030Z,99268.09
2018-06-16T14:35:58.041Z,99265.95
2018-06-16T14:38:27.053Z,99283.59
2018-06-16T14:40:56.084Z,99287.63
2018-06-16T14:43:25.043Z,99295.19
2018-06-16T14:45:54.109Z,99299.95
2018-06-16T14:48:23.068Z,99301.51
2018-06-16T14:50:52.146Z,99292.39
2018-06-16T14:53:21.155Z,99290.39
2018-06-16T14:55:50.192Z,99274.11
2018-06-16T14:58:19.112Z,99261.49
2018-06-16T15:00:48.102Z,99252.70
2018-06-16T15:03:17.165Z,99243.64
2018-06-16T15:05:46.152Z,99240.95
2018-06-16T15:08:15.172Z,99242.59
2018-06-16T15:10:44.205Z,99231.06
2018-06-16T15:13:13.204Z,99223.52
2018-06-16T15:15:42.257Z,99220.96
2018-06-16T15:18:11.504Z,99227.28
2018-06-16T15:20:40.597Z,99231.21
2018-06-16T15:23:09.548Z,99223.03
2018-06-16T15:25:38.884Z,99223.06
2018-06-16T15:28:07.851Z,99229.13
2018-06-16T15:30:36.950Z,99223.70
2018-06-16T15:33:05.984Z,99222.89
2018-06-16T15:35:35.026Z,99227.91
2018-06-16T15:38:04.040Z,99218.89
2018-06-16T15:40:33.028Z,99215.10
2018-06-16T15:43:02.098Z,99211.84
2018-06-16T15:45:31.056Z,99214.33
2018-06-16T15:48:00.001Z,99214.34
2018-06-16T15:50:28.977Z,99213.78
2018-06-16T15:52:57.935Z,99213.48
2018-06-16T15:55:26.893Z,99213.77
2018-06-16T15:57:55.850Z,99218.47
2018-06-16T16:00:24.879Z,99216.54
2018-06-16T16:02:54.560Z,99220.92
2018-06-16T16:05:23.601Z,99222.83
2018-06-16T16:07:52.645Z,99226.94
2018-06-16T16:10:22.014Z,99232.58
2018-06-16T16:12:50.993Z,99237.50
2018-06-16T16:15:20.021Z,99237.77
2018-06-16T16:17:49.149Z,99236.39
2018-06-16T16:20:18.250Z,99246.84
2018-06-16T16:22:47.212Z,99252.03
2018-06-16T16:25:16.249Z,99252.28
2018-06-16T16:27:45.455Z,99263.47
2018-06-16T16:30:14.423Z,99254.91
2018-06-16T16:32:43.393Z,99261.17
2018-06-16T16:35:12.481Z,99259.56
2018-06-16T16:37:41.474Z,99261.20
2018-06-16T16:40:10.511Z,99256.02
2018-06-16T16:42:39.528Z,99260.63
2018-06-16T16:45:08.763Z,99267.73
2018-06-16T16:47:37.824Z,99266.06
2018-06-16T16:50:06.829Z,99267.42
2018-06-16T16:52:35.827Z,99264.41
2018-06-16T16:55:04.781Z,99262.75
2018-06-16T16:57:33.860Z,99267.36
2018-06-16T17:00:02.821Z,99280.45
2018-06-16T17:02:31.848Z,99285.89
2018-06-16T17:05:00.877Z,99283.68
2018-06-16T17:07:29.910Z,99284.48
2018-06-16T17:09:58.869Z,99288.52
2018-06-16T17:12:27.923Z,99284.69
2018-06-16T17:14:56.938Z,99284.59
2018-06-16T17:17:25.985Z,99291.14
2018-06-16T17:19:54.948Z,99295.79
2018-06-16T17:22:23.961Z,99299.00
2018-06-16T17:24:52.981Z,99295.38
2018-06-16T17:27:22.035Z,99309.05
2018-06-16T17:29:51.090Z,99315.88
2018-06-16T17:32:20.140Z,99321.19
2018-06-16T17:34:49.182Z,99326.29
2018-06-16T17:37:18.151Z,99341.24
2018-06-16T17:39:47.088Z,99348.28
2018-06-16T17:42:16.059Z,99342.78
2018-06-16T17:44:45.073Z,99330.94
2018-06-16T17:47:14.176Z,99340.67
2018-06-16T17:49:43.228Z,99344.61
2018-06-16T17:52:12.329Z,99347.78
2018-06-16T17:54:41.280Z,99346.13
2018-06-16T17:57:10.259Z,99352.29
2018-06-16T17:59:39.248Z,99347.36
2018-06-16T18:02:08.504Z,99334.20
2018-06-16T18:04:37.505Z,99333.13
2018-06-16T18:07:06.448Z,99333.33
2018-06-16T18:09:36.175Z,99333.62
2018-06-16T18:12:05.825Z,99330.34
2018-06-16T18:14:35.464Z,99329.19
2018-06-16T18:17:05.126Z,99328.89
2018-06-16T18:19:34.780Z,99337.58
2018-06-16T18:22:04.591Z,99334.80
2018-06-16T18:24:34.238Z,99336.64
2018-06-16T18:27:04.801Z,99335.77
2018-06-16T18:29:34.436Z,99331.58
2018-06-16T18:32:04.225Z,99334.25
2018-06-16T18:34:33.925Z,99343.98
2018-06-16T18:37:03.673Z,99345.25
2018-06-16T18:39:33.386Z,99347.39
2018-06-16T18:42:03.605Z,99349.09
2018-06-16T18:44:33.830Z,99340.96
2018-06-16T18:47:04.614Z,99343.11
2018-06-16T18:49:34.378Z,99349.05
2018-06-16T18:52:04.030Z,99341.38
2018-06-16T18:54:33.759Z,99337.78
2018-06-16T18:57:03.409Z,99338.85
2018-06-16T18:59:33.111Z,99346.25
2018-06-16T19:02:02.788Z,99349.83
2018-06-16T19:04:33.283Z,99356.94
2018-06-16T19:07:02.927Z,99363.98
2018-06-16T19:09:34.099Z,99357.70
2018-06-16T19:12:03.400Z,99363.98
2018-06-16T19:14:32.542Z,99360.67
2018-06-16T19:17:01.530Z,99368.56
2018-06-16T19:19:30.774Z,99367.94
2018-06-16T19:21:59.767Z,99366.58
2018-06-16T19:24:28.755Z,99369.53
2018-06-16T19:26:57.760Z,99365.51
2018-06-16T19:29:26.764Z,99367.65
2018-06-16T19:31:55.791Z,99378.16
2018-06-16T19:34:24.739Z,99379.56
2018-06-16T19:36:53.728Z,99381.19
2018-06-16T19:39:22.769Z,99376.91
2018-06-16T19:41:51.750Z,99382.95
2018-06-16T19:44:20.699Z,99377.27
2018-06-16T19:46:49.685Z,99382.72
2018-06-16T19:49:18.651Z,99389.34
2018-06-16T19:51:47.688Z,99394.02
2018-06-16T19:54:16.666Z,99399.19
2018-06-16T19:56:45.662Z,99409.80
2018-06-16T19:59:14.644Z,99412.23
2018-06-16T20:01:43.636Z,99415.80
2018-06-16T20:04:13.056Z,99416.04
2018-06-16T20:06:42.088Z,99412.05
2018-06-16T20:09:11.107Z,99418.05
2018-06-16T20:11:40.103Z,99408.50
2018-06-16T20:14:09.090Z,99406.07
2018-06-16T20:16:38.055Z,99418.88
2018-06-16T20:19:07.207Z,99427.05
2018-06-16T20:21:36.204Z,99429.55
2018-06-16T20:24:05.169Z,99426.23
2018-06-16T20:26:34.156Z,99426.22
2018-06-16T20:29:03.130Z,99427.05
2018-06-16T20:31:32.177Z,99418.28
2018-06-16T20:34:01.207Z,99419.94
2018-06-16T20:36:30.194Z,99418.58
2018-06-16T20:38:59.184Z,99416.69
2018-06-16T20:41:28.171Z,99420.52
2018-06-16T20:43:57.160Z,99418.04
2018-06-16T20:46:26.222Z,99408.50
2018-06-16T20:48:55.207Z,99411.23
2018-06-16T20:51:24.191Z,99414.77
2018-06-16T20:53:53.177Z,99420.72
2018-06-16T20:56:22.179Z,99418.28
2018-06-16T20:58:51.246Z,99413.89
2018-06-16T21:01:20.247Z,99418.28
2018-06-16T21:03:49.287Z,99421.06
2018-06-16T21:06:18.268Z,99436.30
2018-06-16T21:08:47.322Z,99438.69
2018-06-16T21:11:16.271Z,99437.28
2018-06-16T21:13:45.229Z,99439.98
2018-06-16T21:16:14.215Z,99436.72
2018-06-16T21:18:43.195Z,99437.81
2018-06-16T21:21:12.212Z,99435.36
2018-06-16T21:23:41.276Z,99437.80
2018-06-16T21:26:10.236Z,99437.69
2018-06-16T21:28:39.212Z,99428.08
2018-06-16T21:31:08.318Z,99418.77
2018-06-16T21:33:37.317Z,99415.66
2018-06-16T21:36:06.480Z,99415.66
2018-06-16T21:38:35.506Z,99403.38
2018-06-16T21:41:04.494Z,99404.98
2018-06-16T21:43:33.513Z,99395.04
2018-06-16T21:46:02.504Z,99391.47
2018-06-16T21:48:31.540Z,99383.77
2018-06-16T21:51:00.522Z,99385.61
2018-06-16T21:53:29.491Z,99393.72
2018-06-16T21:55:58.452Z,99384.41
2018-06-16T21:58:27.492Z,99396.08
2018-06-16T22:00:56.470Z,99397.67
2018-06-16T22:03:25.413Z,99407.34
2018-06-16T22:05:54.383Z,99418.94
2018-06-16T22:08:28.451Z,99420.45
2018-06-16T22:10:57.422Z,99419.81
2018-06-16T22:13:26.374Z,99427.45
2018-06-16T22:15:55.388Z,99425.26
2018-06-16T22:18:24.734Z,99419.78
2018-06-16T22:20:53.726Z,99420.61
2018-06-16T22:23:22.680Z,99420.85
2018-06-16T22:25:51.636Z,99423.81
2018-06-16T22:28:20.622Z,99424.14
2018-06-16T22:30:49.591Z,99431.00
2018-06-16T22:33:18.564Z,99431.68
2018-06-16T22:35:47.538Z,99435.59
2018-06-16T22:38:16.567Z,99438.39
2018-06-16T22:40:45.535Z,99439.88
2018-06-16T22:43:14.535Z,99438.51
2018-06-16T22:45:43.517Z,99445.94
2018-06-16T22:48:12.492Z,99443.08
2018-06-16T22:50:41.470Z,99438.48
2018-06-16T22:53:10.423Z,99438.30
2018-06-16T22:55:39.385Z,99449.28
2018-06-16T22:58:08.337Z,99441.80
2018-06-16T23:00:37.309Z,99438.29
2018-06-16T23:03:06.312Z,99435.83
2018-06-16T23:05:35.358Z,99438.93
2018-06-16T23:08:04.307Z,99429.75
2018-06-16T23:10:33.282Z,99435.84
2018-06-16T23:13:02.274Z,99429.61
2018-06-16T23:15:31.278Z,99430.75
2018-06-16T23:18:00.235Z,99436.30
2018-06-16T23:20:29.221Z,99440.64
2018-06-16T23:22:58.211Z,99439.03
2018-06-16T23:25:27.225Z,99443.42
2018-06-16T23:27:56.270Z,99441.47
2018-06-16T23:30:25.252Z,99441.95
2018-06-16T23:32:54.311Z,99440.35
2018-06-16T23:35:23.272Z,99437.09
2018-06-16T23:37:52.241Z,99431.92
2018-06-16T23:40:21.206Z,99437.37
2018-06-16T23:42:50.143Z,99435.38
2018-06-16T23:45:19.096Z,99438.64
2018-06-16T23:47:48.056Z,99431.51
2018-06-16T23:50:16.991Z,99426.78
2018-06-16T23:52:45.958Z,99427.30
2018-06-16T23:55:15.024Z,99427.02
2018-06-16T23:57:43.986Z,99422.91
